createdAt,value
2022-08-16T10:55:57.549Z,32.10
2022-08-16T10:56:55.499Z,32.45
2022-08-16T10:57:50.950Z,32.33
2022-08-16T10:58:50.884Z,32.35
2022-08-16T10:59:53.058Z,32.11
2022-08-16T11:00:57.233Z,32.21
2022-08-16T11:02:58.614Z,32.03
2022-08-16T11:03:54.438Z,31.74
2022-08-16T11:05:08.102Z,31.67
2022-08-16T11:06:00.832Z,31.69
2022-08-16T11:07:07.989Z,31.60
2022-08-16T11:07:52.534Z,31.46
2022-08-16T11:09:21.038Z,31.44
2022-08-16T11:09:50.814Z,31.76
2022-08-16T11:11:01.896Z,31.95
2022-08-16T11:12:14.801Z,32.35
2022-08-16T11:12:52.731Z,32.87
2022-08-16T11:13:59.589Z,33.19
2022-08-16T11:15:13.562Z,33.59
2022-08-16T11:15:55.520Z,33.94
2022-08-16T11:17:09.269Z,34.21
2022-08-16T11:18:47.846Z,33.85
2022-08-16T11:19:05.306Z,33.47
2022-08-16T11:20:50.775Z,33.27
2022-08-16T11:22:50.927Z,33.94
2022-08-16T11:23:56.880Z,33.16
2022-08-16T11:25:11.884Z,33.63
2022-08-16T11:26:23.903Z,33.53
2022-08-16T11:27:18.628Z,33.52
2022-08-16T11:27:50.822Z,33.64
2022-08-16T11:29:13.925Z,33.61
2022-08-16T11:29:52.145Z,33.73
2022-08-16T11:30:54.909Z,34.03
2022-08-16T11:31:54.119Z,33.49
2022-08-16T11:32:50.817Z,33.72
2022-08-16T11:33:52.687Z,33.78
2022-08-16T11:35:13.237Z,33.60
2022-08-16T11:36:53.690Z,33.64
2022-08-16T11:38:46.563Z,33.25
2022-08-16T11:38:57.852Z,33.38
2022-08-16T11:39:59.679Z,33.14
2022-08-16T11:40:52.554Z,33.01
2022-08-16T11:41:52.994Z,33.06
2022-08-16T11:42:50.914Z,32.66
2022-08-16T11:43:50.884Z,32.77
2022-08-16T11:44:56.201Z,33.06
2022-08-16T11:45:54.259Z,33.03
2022-08-16T11:46:50.890Z,33.00
2022-08-16T11:47:51.015Z,32.77
2022-08-16T11:48:50.883Z,32.94
2022-08-16T11:49:50.903Z,32.99
2022-08-16T11:50:50.898Z,33.00
2022-08-16T11:51:50.896Z,33.10
2022-08-16T11:52:50.914Z,33.02
2022-08-16T11:53:51.837Z,32.63
2022-08-16T11:54:56.929Z,32.14
2022-08-16T11:55:55.011Z,31.80
2022-08-16T11:56:52.834Z,31.60
2022-08-16T11:57:56.324Z,31.47
2022-08-16T11:58:51.527Z,31.47
2022-08-16T11:59:50.933Z,31.51
2022-08-16T12:00:52.827Z,31.83
2022-08-16T12:01:59.483Z,31.80
2022-08-16T12:02:50.948Z,31.87
2022-08-16T12:03:51.375Z,31.84
2022-08-16T12:04:51.689Z,31.87
2022-08-16T12:05:52.032Z,31.62
2022-08-16T12:06:53.565Z,31.70
2022-08-16T12:07:50.950Z,31.54
2022-08-16T12:08:51.359Z,31.17
2022-08-16T12:09:50.964Z,31.20
2022-08-16T12:10:50.971Z,31.19
2022-08-16T12:11:52.986Z,31.43
2022-08-16T12:12:50.985Z,31.62
2022-08-16T12:13:51.012Z,31.64
2022-08-16T12:14:54.616Z,31.71
2022-08-16T12:15:50.981Z,31.74
2022-08-16T12:16:55.556Z,31.82
2022-08-16T12:17:50.990Z,32.12
2022-08-16T12:18:51.064Z,32.25
2022-08-16T12:19:51.000Z,32.35
2022-08-16T12:20:51.002Z,32.61
2022-08-16T12:21:58.705Z,32.50
2022-08-16T12:22:51.016Z,32.30
2022-08-16T12:23:51.026Z,32.11
2022-08-16T12:24:52.508Z,32.15
2022-08-16T12:25:51.072Z,32.26
2022-08-16T12:26:51.040Z,32.05
2022-08-16T12:27:51.071Z,32.21
2022-08-16T12:28:54.476Z,31.92
2022-08-16T12:29:51.002Z,31.86
2022-08-16T12:30:51.064Z,31.77
2022-08-16T12:32:01.510Z,31.75
2022-08-16T12:32:52.951Z,31.76
2022-08-16T12:33:54.397Z,31.64
2022-08-16T12:34:52.781Z,31.72
2022-08-16T12:35:51.112Z,31.55
2022-08-16T12:36:51.090Z,31.65
2022-08-16T12:37:55.469Z,31.41
2022-08-16T12:38:51.093Z,31.38
2022-08-16T12:39:52.041Z,31.33
2022-08-16T12:40:55.527Z,31.30
2022-08-16T12:41:51.083Z,31.48
2022-08-16T12:42:52.959Z,31.56
2022-08-16T12:43:51.096Z,31.85
2022-08-16T12:44:51.138Z,31.74
2022-08-16T12:45:51.119Z,31.60
2022-08-16T12:46:51.125Z,31.60
2022-08-16T12:47:51.433Z,31.70
2022-08-16T12:48:51.109Z,31.19
2022-08-16T12:49:51.113Z,30.84
2022-08-16T12:50:51.170Z,30.82
2022-08-16T12:51:58.634Z,30.91
2022-08-16T12:52:53.465Z,30.88
2022-08-16T12:53:51.268Z,30.96
2022-08-16T12:54:55.099Z,31.03
2022-08-16T12:55:51.213Z,31.16
2022-08-16T12:56:51.208Z,31.11
2022-08-16T12:57:58.598Z,31.31
2022-08-16T12:58:52.082Z,31.44
2022-08-16T12:59:51.226Z,31.40
2022-08-16T13:00:51.415Z,31.36
2022-08-16T13:01:57.961Z,31.59
2022-08-16T13:02:51.468Z,31.89
2022-08-16T13:03:59.095Z,31.96
2022-08-16T13:04:51.270Z,31.62
2022-08-16T13:05:55.069Z,31.16
2022-08-16T13:06:52.365Z,30.95
2022-08-16T13:07:53.181Z,31.00
2022-08-16T13:08:51.258Z,31.08
2022-08-16T13:09:51.253Z,31.01
2022-08-16T13:10:52.670Z,30.92
2022-08-16T13:11:57.797Z,30.96
2022-08-16T13:12:51.253Z,31.05
2022-08-16T13:13:54.892Z,31.13
2022-08-16T13:14:51.268Z,31.18
2022-08-16T13:15:55.940Z,31.28
2022-08-16T13:16:51.264Z,31.23
2022-08-16T13:17:51.311Z,31.39
2022-08-16T13:18:52.528Z,31.38
2022-08-16T13:20:08.165Z,31.06
2022-08-16T13:20:51.270Z,30.91
2022-08-16T13:21:51.284Z,30.82
2022-08-16T13:22:51.285Z,30.93
2022-08-16T13:23:51.330Z,31.00
2022-08-16T13:24:51.391Z,31.39
2022-08-16T13:25:51.312Z,31.07
2022-08-16T13:26:53.219Z,30.97
2022-08-16T13:28:14.856Z,31.49
2022-08-16T13:28:51.788Z,31.68
2022-08-16T13:29:57.724Z,31.90
2022-08-16T13:30:51.321Z,31.89
2022-08-16T13:31:51.338Z,31.64
2022-08-16T13:32:51.387Z,31.71
2022-08-16T13:33:51.347Z,32.05
2022-08-16T13:34:51.368Z,32.46
2022-08-16T13:35:55.950Z,32.01
2022-08-16T13:36:51.378Z,32.36
2022-08-16T13:37:51.336Z,32.36
2022-08-16T13:38:51.641Z,32.35
2022-08-16T13:39:51.421Z,32.56
2022-08-16T13:40:51.397Z,32.87
2022-08-16T13:41:53.612Z,32.98
2022-08-16T13:42:51.373Z,33.02
2022-08-16T13:43:57.929Z,32.97
2022-08-16T13:44:58.037Z,32.66
2022-08-16T13:45:51.343Z,32.66
2022-08-16T13:46:51.356Z,32.89
2022-08-16T13:47:52.863Z,32.85
2022-08-16T13:48:51.652Z,32.41
2022-08-16T13:49:51.373Z,32.19
2022-08-16T13:50:52.227Z,32.35
2022-08-16T13:51:51.395Z,32.36
2022-08-16T13:52:51.659Z,32.38
2022-08-16T13:53:59.351Z,32.16
2022-08-16T13:54:51.394Z,32.06
2022-08-16T13:55:59.115Z,32.17
2022-08-16T13:56:51.380Z,32.16
2022-08-16T13:58:35.411Z,32.09
2022-08-16T13:58:54.959Z,32.30
2022-08-16T13:59:51.402Z,32.27
2022-08-16T14:00:52.785Z,32.09
2022-08-16T14:01:54.597Z,31.86
2022-08-16T14:02:54.709Z,32.04
2022-08-16T14:03:53.160Z,32.02
2022-08-16T14:05:01.874Z,31.99
2022-08-16T14:05:51.443Z,31.87
2022-08-16T14:06:51.490Z,31.77
2022-08-16T14:07:52.730Z,31.78
2022-08-16T14:09:06.421Z,31.68
2022-08-16T14:09:51.429Z,32.16
2022-08-16T14:10:51.438Z,32.26
2022-08-16T14:11:53.306Z,32.17
2022-08-16T14:12:51.507Z,32.28
2022-08-16T14:13:51.703Z,32.17
2022-08-16T14:14:54.476Z,32.22
2022-08-16T14:15:51.532Z,32.52
2022-08-16T14:16:51.443Z,32.59
2022-08-16T14:18:17.530Z,32.45
2022-08-16T14:18:52.673Z,32.32
2022-08-16T14:19:51.472Z,32.37
2022-08-16T14:20:51.479Z,31.82
2022-08-16T14:21:56.528Z,31.71
2022-08-16T14:22:52.584Z,31.61
2022-08-16T14:23:51.512Z,31.69
2022-08-16T14:24:51.499Z,31.58
2022-08-16T14:25:54.046Z,31.60
2022-08-16T14:26:52.872Z,31.74
2022-08-16T14:27:52.483Z,31.63
2022-08-16T14:28:51.880Z,31.80
2022-08-16T14:29:51.577Z,31.61
2022-08-16T14:30:51.582Z,31.59
2022-08-16T14:31:53.589Z,31.41
2022-08-16T14:32:51.838Z,31.65
2022-08-16T14:33:51.875Z,31.41
2022-08-16T14:34:51.849Z,31.64
2022-08-16T14:35:51.586Z,31.63
2022-08-16T14:36:52.041Z,31.66
2022-08-16T14:37:52.648Z,31.58
2022-08-16T14:38:51.542Z,31.59
2022-08-16T14:39:51.649Z,31.42
2022-08-16T14:40:55.045Z,31.49
2022-08-16T14:41:53.784Z,31.48
2022-08-16T14:42:51.870Z,31.19
2022-08-16T14:43:51.548Z,31.08
2022-08-16T14:44:51.549Z,31.13
2022-08-16T14:45:51.550Z,31.33
2022-08-16T14:46:52.911Z,31.33
2022-08-16T14:47:51.606Z,31.58
2022-08-16T14:48:51.791Z,31.79
2022-08-16T14:49:52.388Z,31.86
2022-08-16T14:50:51.547Z,32.02
2022-08-16T14:51:51.576Z,31.71
2022-08-16T14:52:56.369Z,31.79
2022-08-16T14:53:52.685Z,31.77
2022-08-16T14:54:51.570Z,31.70
2022-08-16T14:55:51.580Z,31.57
2022-08-16T14:56:54.730Z,31.55
2022-08-16T14:57:52.855Z,31.45
2022-08-16T14:58:51.607Z,31.30
2022-08-16T14:59:51.589Z,31.44
2022-08-16T15:00:51.634Z,31.56
2022-08-16T15:01:59.453Z,30.75
2022-08-16T15:02:51.638Z,30.85
2022-08-16T15:03:51.664Z,30.75
2022-08-16T15:04:51.613Z,30.72
2022-08-16T15:05:53.955Z,31.06
2022-08-16T15:06:51.665Z,31.13
2022-08-16T15:07:51.954Z,31.30
2022-08-16T15:08:52.167Z,31.17
2022-08-16T15:10:01.650Z,31.21
2022-08-16T15:10:51.759Z,31.21
2022-08-16T15:11:51.751Z,31.18
2022-08-16T15:12:51.752Z,31.08
2022-08-16T15:13:52.288Z,31.15
2022-08-16T15:14:51.850Z,30.99
2022-08-16T15:15:58.860Z,30.48
2022-08-16T15:16:51.846Z,30.25
2022-08-16T15:17:54.623Z,30.08
2022-08-16T15:18:51.778Z,30.01
2022-08-16T15:19:51.775Z,30.11
2022-08-16T15:20:51.799Z,29.97
2022-08-16T15:21:53.959Z,29.86
2022-08-16T15:22:51.757Z,29.86
2022-08-16T15:23:52.302Z,30.06
2022-08-16T15:24:51.807Z,30.25
2022-08-16T15:26:02.932Z,30.27
2022-08-16T15:26:51.869Z,29.97
2022-08-16T15:27:55.353Z,30.00
2022-08-16T15:28:52.320Z,29.95
2022-08-16T15:29:52.343Z,30.04
2022-08-16T15:30:59.639Z,29.92
2022-08-16T15:32:00.628Z,30.08
2022-08-16T15:32:51.820Z,29.98
2022-08-16T15:33:56.583Z,29.94
2022-08-16T15:34:51.818Z,29.97
2022-08-16T15:35:51.840Z,30.02
2022-08-16T15:36:51.841Z,30.01
2022-08-16T15:37:54.728Z,29.79
2022-08-16T15:39:02.134Z,29.44
2022-08-16T15:39:53.795Z,29.36
2022-08-16T15:40:57.572Z,29.40
2022-08-16T15:41:51.848Z,29.34
2022-08-16T15:42:53.917Z,29.22
2022-08-16T15:43:52.017Z,29.16
2022-08-16T15:44:55.655Z,29.05
2022-08-16T15:45:54.186Z,28.83
2022-08-16T15:46:55.207Z,29.08
2022-08-16T15:47:55.848Z,28.98
2022-08-16T15:48:52.128Z,29.00
2022-08-16T15:49:55.698Z,29.05
2022-08-16T15:50:51.867Z,29.07
2022-08-16T15:51:51.946Z,29.01
2022-08-16T15:52:51.865Z,29.00
2022-08-16T15:54:05.706Z,28.96
2022-08-16T15:54:53.706Z,29.06
2022-08-16T15:55:51.917Z,28.99
2022-08-16T15:56:51.871Z,29.06
2022-08-16T15:57:51.906Z,28.87
2022-08-16T15:58:55.972Z,28.74
2022-08-16T15:59:52.894Z,28.68
2022-08-16T16:00:51.985Z,28.80
2022-08-16T16:01:51.887Z,28.51
2022-08-16T16:02:51.945Z,28.45
2022-08-16T16:03:51.972Z,28.36
2022-08-16T16:04:51.894Z,28.35
2022-08-16T16:05:51.926Z,28.22
2022-08-16T16:06:55.321Z,28.23
2022-08-16T16:07:56.290Z,28.19
2022-08-16T16:08:51.957Z,28.27
2022-08-16T16:09:53.108Z,28.32
2022-08-16T16:10:54.499Z,28.42
2022-08-16T16:11:51.926Z,28.38
2022-08-16T16:12:54.424Z,28.23
